Niles, Mississippi
Current Conditions -  °F | °C
As of 12:35 AM on Wednesday 26 Nov 2014 (Local Time) from KRNV Reporting Station
Clear Clear  
Wind Chill:   Ceiling: Unl
Heat Index:   Visibility: 10mi
Dew Point:   Wind: 0mph
Humidity: 89%   Direction: NA
Pressure: 30.18"   Gusts: NA
Location:  33.8277°N, 90.9559°W
Report Text: KRNV 260635Z AUTO 00000KT 10SM CLR 02/00 A3018 RMK AO2 T00160000
Loading
Personal Weather Stations






























Interactive Weather Map New forecast layout! Learn more

10-Day Weather Forecast

Advertisements
Track Severe Weather on mobile